Time;durP1;ratioP1;P1;durP2;ratioP2;P2;SDS_P1;SDS_P2;PMS_P1;PMS_P2;Temp;Humidity;BMP_temperature;BMP_pressure;BME280_temperature;BME280_humidity;BME280_pressure;Samples;Min_cycle;Max_cycle;Signal;HPM_P1;HPM_P2
2022/07/19 00:01:42;;;;;;;;;14.67;14.67;;;;;29.04;40.24;101075.97;5010380;28;46610;-75
2022/07/19 00:04:08;;;;;;;;;13.67;13.00;;;;;28.92;40.50;101061.63;5017872;28;46050;-77
2022/07/19 00:06:35;;;;;;;;;13.67;13.33;;;;;28.98;40.58;101073.59;4994425;28;45760;-76
2022/07/19 00:09:01;;;;;;;;;14.67;13.33;;;;;28.92;40.59;101067.28;5012777;28;45402;-77
2022/07/19 00:11:26;;;;;;;;;14.33;13.33;;;;;28.87;41.05;101068.25;5018303;28;45830;-74
2022/07/19 00:13:53;;;;;;;;;14.67;11.33;;;;;28.86;40.86;101071.41;5020067;28;45709;-77
2022/07/19 00:16:19;;;;;;;;;13.33;9.67;;;;;28.70;41.08;101040.78;5013370;28;45498;-77
2022/07/19 00:18:45;;;;;;;;;17.33;12.67;;;;;28.70;41.21;101054.91;5032477;28;45364;-75
2022/07/19 00:21:10;;;;;;;;;10.33;10.33;;;;;28.74;41.36;101065.53;5017880;28;45996;-77
2022/07/19 00:23:36;;;;;;;;;14.67;13.00;;;;;28.60;41.74;101048.72;5026585;28;45911;-76
2022/07/19 00:26:02;;;;;;;;;17.00;17.00;;;;;28.65;41.71;101057.03;5025229;28;45771;-74
2022/07/19 00:28:27;;;;;;;;;10.33;10.33;;;;;28.45;42.02;101038.63;5015976;28;45441;-76
2022/07/19 00:30:52;;;;;;;;;17.67;14.00;;;;;28.49;41.79;101043.31;5029852;28;45407;-76
2022/07/19 00:33:18;;;;;;;;;7.00;5.50;;;;;28.50;42.44;101055.41;5023897;28;45792;-76
2022/07/19 00:35:43;;;;;;;;;9.33;9.33;;;;;28.44;42.34;101049.06;5031266;28;45755;-76
2022/07/19 00:38:12;;;;;;;;;13.33;10.67;;;;;28.41;42.52;101052.53;5017116;28;45391;-77
2022/07/19 00:40:40;;;;;;;;;13.67;12.00;;;;;28.33;42.84;101048.50;5025932;28;45541;-74
2022/07/19 00:43:07;;;;;;;;;10.67;9.67;;;;;28.34;42.88;101053.00;5005456;28;46767;-75
2022/07/19 00:45:33;;;;;;;;;30.00;21.67;;;;;28.23;42.81;101042.31;5028376;28;46831;-75
2022/07/19 00:47:58;;;;;;;;;12.00;9.00;;;;;28.18;43.06;101040.47;5012547;28;45431;-75
2022/07/19 00:50:24;;;;;;;;;9.00;8.67;;;;;28.15;43.15;101035.47;5024492;28;45855;-76
2022/07/19 00:52:55;;;;;;;;;9.33;9.33;;;;;28.20;43.22;101048.59;5029617;28;46323;-75
2022/07/19 00:55:22;;;;;;;;;6.67;5.33;;;;;28.17;43.32;101038.78;5030339;28;45985;-75
2022/07/19 00:57:48;;;;;;;;;11.00;9.67;;;;;28.11;43.83;101038.06;5029046;28;45966;-76
2022/07/19 01:00:15;;;;;;;;;12.00;9.33;;;;;28.10;44.13;101055.31;5030027;28;45461;-76
2022/07/19 01:02:42;;;;;;;;;9.33;7.67;;;;;28.08;43.95;101054.81;5022841;28;45531;-74
2022/07/19 01:05:09;;;;;;;;;8.67;8.67;;;;;27.99;44.09;101049.97;5011451;28;45789;-75
2022/07/19 01:07:37;;;;;;;;;11.00;9.00;;;;;27.92;43.94;101040.22;5003137;28;45962;-75
2022/07/19 01:10:03;;;;;;;;;8.33;8.33;;;;;27.96;43.94;101044.94;4996624;28;45447;-75
2022/07/19 01:12:29;;;;;;;;;9.67;9.00;;;;;27.92;44.29;101031.78;5021731;28;45981;-75
2022/07/19 01:14:58;;;;;;;;;9.67;7.67;;;;;27.91;44.32;101030.13;5022286;28;45529;-76
2022/07/19 01:17:24;;;;;;;;;4.33;4.33;;;;;27.87;44.51;101034.72;5018239;28;45843;-75
2022/07/19 01:19:50;;;;;;;;;9.00;9.00;;;;;27.83;44.91;101032.53;5010454;28;45728;-77
2022/07/19 01:22:15;;;;;;;;;11.00;8.33;;;;;27.80;44.83;101029.50;5016244;28;45847;-76
2022/07/19 01:24:41;;;;;;;;;11.67;8.33;;;;;27.72;45.04;101028.31;5014373;28;45344;-76
2022/07/19 01:27:07;;;;;;;;;7.67;6.67;;;;;27.75;45.24;101035.28;5012062;28;45884;-78
2022/07/19 01:29:35;;;;;;;;;9.33;8.33;;;;;27.72;45.45;101030.28;5011432;28;45553;-78
2022/07/19 01:32:01;;;;;;;;;11.67;8.33;;;;;27.69;46.15;101028.94;5021801;28;45603;-77
2022/07/19 01:34:26;;;;;;;;;10.33;9.00;;;;;27.67;46.23;101033.25;5007674;28;45788;-77
2022/07/19 01:36:52;;;;;;;;;9.33;8.33;;;;;27.48;47.12;101000.41;5025829;28;45570;-77
2022/07/19 01:39:17;;;;;;;;;8.67;7.00;;;;;27.58;47.31;101027.53;5017653;28;45749;-78
2022/07/19 01:41:43;;;;;;;;;11.33;7.67;;;;;27.42;47.50;101004.50;5012148;28;45717;-76
2022/07/19 01:44:08;;;;;;;;;7.67;7.33;;;;;27.48;47.66;101028.59;5014756;28;45380;-75
2022/07/19 01:46:33;;;;;;;;;9.00;8.33;;;;;27.46;47.48;101025.25;5024148;28;45693;-75
2022/07/19 01:48:59;;;;;;;;;7.33;7.33;;;;;27.43;47.09;101020.25;5010962;28;45612;-78
2022/07/19 01:51:24;;;;;;;;;7.67;6.33;;;;;27.39;47.11;101019.22;4996705;28;45879;-74
2022/07/19 01:53:50;;;;;;;;;7.67;7.67;;;;;27.37;47.18;101021.53;5011690;28;45742;-73
2022/07/19 01:56:15;;;;;;;;;6.00;6.00;;;;;27.31;47.25;101012.31;5015687;28;45502;-74
2022/07/19 01:58:40;;;;;;;;;4.33;4.33;;;;;27.28;47.44;101016.59;4996968;28;47017;-75
2022/07/19 02:01:06;;;;;;;;;5.67;5.67;;;;;27.23;47.46;101025.19;5010963;28;46782;-75
2022/07/19 02:03:31;;;;;;;;;6.67;6.67;;;;;27.20;47.44;101019.31;5021641;28;45888;-76
2022/07/19 02:05:57;;;;;;;;;5.33;5.33;;;;;27.10;47.29;101007.13;5010416;28;45775;-74
2022/07/19 02:08:22;;;;;;;;;10.33;7.00;;;;;27.11;47.78;101020.06;5002917;28;45901;-75
2022/07/19 02:10:48;;;;;;;;;9.33;6.33;;;;;27.05;47.57;101015.72;5025345;28;46113;-75
2022/07/19 02:13:14;;;;;;;;;10.67;6.00;;;;;27.04;47.78;101021.66;5026785;28;46565;-74
2022/07/19 02:15:39;;;;;;;;;8.33;6.00;;;;;26.99;47.79;101013.28;5004860;28;45465;-75
2022/07/19 02:18:05;;;;;;;;;7.33;5.00;;;;;26.97;47.97;101012.78;5022886;28;45517;-75
2022/07/19 02:20:30;;;;;;;;;6.00;6.00;;;;;26.85;48.43;101005.69;5016545;28;45691;-78
2022/07/19 02:22:56;;;;;;;;;7.00;7.00;;;;;26.89;48.45;101011.53;5010703;28;45415;-75
2022/07/19 02:25:22;;;;;;;;;5.33;5.33;;;;;26.86;48.83;101007.38;5023118;28;45312;-74
2022/07/19 02:27:47;;;;;;;;;8.33;7.00;;;;;26.81;49.08;101001.81;5026368;28;45731;-74
2022/07/19 02:30:13;;;;;;;;;7.00;6.00;;;;;26.76;49.42;101005.59;5013768;28;46703;-74
2022/07/19 02:32:40;;;;;;;;;7.33;6.00;;;;;26.71;49.72;101002.06;5002859;28;45577;-74
2022/07/19 02:35:07;;;;;;;;;8.33;5.67;;;;;26.64;50.16;100988.38;5021976;28;45619;-74
2022/07/19 02:37:32;;;;;;;;;8.67;6.67;;;;;26.63;50.22;100997.94;5024108;28;45415;-73
2022/07/19 02:39:58;;;;;;;;;5.00;5.00;;;;;26.45;50.37;100967.94;5013436;28;46229;-74
2022/07/19 02:42:23;;;;;;;;;7.33;7.33;;;;;26.57;50.89;101000.03;5013463;28;45740;-74
2022/07/19 02:44:49;;;;;;;;;6.33;6.33;;;;;26.53;51.27;100993.38;5028045;28;45371;-75
2022/07/19 02:47:14;;;;;;;;;5.00;5.00;;;;;26.50;51.42;100990.31;5013094;28;45555;-75
2022/07/19 02:49:40;;;;;;;;;9.33;8.33;;;;;26.47;52.15;100988.13;5029068;28;45412;-73
2022/07/19 02:52:05;;;;;;;;;8.00;7.67;;;;;26.36;52.34;100981.88;5032589;28;45729;-75
2022/07/19 02:54:30;;;;;;;;;7.33;6.00;;;;;26.24;52.93;100971.13;5033405;28;45984;-74
2022/07/19 02:56:56;;;;;;;;;9.67;7.33;;;;;26.31;53.33;100991.25;5014770;28;46523;-74
2022/07/19 02:59:21;;;;;;;;;9.00;8.00;;;;;26.31;53.69;100993.22;5032890;28;45659;-74
2022/07/19 03:01:47;;;;;;;;;8.00;8.00;;;;;26.25;53.79;100987.69;5031340;28;45423;-74
2022/07/19 03:04:12;;;;;;;;;6.33;5.33;;;;;26.22;54.01;100981.84;5016934;28;45365;-74
2022/07/19 03:06:38;;;;;;;;;9.67;7.33;;;;;26.20;54.56;100992.59;5016239;28;45372;-76
2022/07/19 03:09:03;;;;;;;;;8.67;5.67;;;;;26.03;55.03;100965.03;5013690;28;45822;-75
2022/07/19 03:11:29;;;;;;;;;8.00;5.33;;;;;26.15;55.02;100987.03;5013567;28;45593;-73
2022/07/19 03:13:54;;;;;;;;;5.67;5.67;;;;;25.88;55.15;100947.28;5013498;28;46409;-73
2022/07/19 03:16:20;;;;;;;;;7.33;6.00;;;;;26.07;54.94;100986.59;5015683;28;45501;-74
2022/07/19 03:18:45;;;;;;;;;9.33;7.00;;;;;26.06;55.51;100986.91;4995363;28;47516;-73
2022/07/19 03:21:11;;;;;;;;;7.67;5.67;;;;;26.02;55.48;100991.50;5012849;28;45435;-73
2022/07/19 03:23:37;;;;;;;;;5.33;5.33;;;;;26.00;55.22;100985.34;5023226;28;45560;-76
2022/07/19 03:26:03;;;;;;;;;7.33;5.33;;;;;25.90;55.91;100964.66;5023670;28;45894;-75
2022/07/19 03:28:28;;;;;;;;;8.67;6.67;;;;;25.99;55.74;100983.66;5021249;28;45793;-75
2022/07/19 03:30:54;;;;;;;;;7.00;6.00;;;;;25.97;56.25;100985.91;5004574;28;45495;-73
2022/07/19 03:33:19;;;;;;;;;7.67;7.33;;;;;25.87;56.26;100981.31;5021863;28;45717;-73
2022/07/19 03:35:46;;;;;;;;;6.00;6.00;;;;;25.92;56.58;100984.03;5013482;28;45527;-73
2022/07/19 03:38:12;;;;;;;;;9.33;7.33;;;;;25.86;56.89;100986.09;5013717;28;45588;-74
2022/07/19 03:40:38;;;;;;;;;11.00;7.33;;;;;25.86;56.92;100988.91;5010241;28;45731;-73
2022/07/19 03:43:04;;;;;;;;;8.00;6.33;;;;;25.86;57.12;100976.84;5014536;28;45743;-73
2022/07/19 03:45:30;;;;;;;;;8.33;7.33;;;;;25.81;57.33;100980.56;5015281;28;45897;-75
2022/07/19 03:47:55;;;;;;;;;7.33;6.00;;;;;25.73;57.58;100970.00;5018047;28;45788;-75
2022/07/19 03:50:21;;;;;;;;;7.00;7.00;;;;;25.78;57.63;100972.75;5015492;28;45816;-75
2022/07/19 03:52:46;;;;;;;;;6.00;6.00;;;;;25.71;57.88;100969.50;5035560;28;45824;-75
2022/07/19 03:55:12;;;;;;;;;5.67;5.67;;;;;25.77;57.95;100975.88;5039266;28;45440;-74
2022/07/19 03:57:37;;;;;;;;;5.33;4.67;;;;;25.73;58.15;100986.88;5039949;28;46649;-76
2022/07/19 04:00:04;;;;;;;;;9.33;8.00;;;;;25.71;58.17;100992.78;5030209;28;45509;-75
2022/07/19 04:02:30;;;;;;;;;8.33;6.33;;;;;25.58;58.67;100968.28;5030055;28;45616;-76
2022/07/19 04:04:55;;;;;;;;;7.67;6.00;;;;;25.60;58.71;100984.81;4999764;28;47339;-74
2022/07/19 04:07:21;;;;;;;;;8.33;5.33;;;;;25.64;58.69;100978.28;5009797;28;46237;-74
2022/07/19 04:09:46;;;;;;;;;6.00;6.00;;;;;25.59;59.14;100977.56;5035731;28;45676;-74
2022/07/19 04:12:11;;;;;;;;;7.33;7.00;;;;;25.51;59.00;100968.69;5028001;28;45852;-75
2022/07/19 04:14:37;;;;;;;;;8.33;7.33;;;;;25.57;59.21;100982.63;5032537;28;45464;-76
2022/07/19 04:17:04;;;;;;;;;7.33;7.33;;;;;25.50;59.69;100974.59;5009632;28;46423;-76
2022/07/19 04:19:30;;;;;;;;;13.00;7.67;;;;;25.48;59.57;100969.28;5030641;28;45953;-73
2022/07/19 04:21:56;;;;;;;;;8.67;7.67;;;;;25.59;59.90;100992.44;5028477;28;45536;-74
2022/07/19 04:24:21;;;;;;;;;11.67;11.33;;;;;25.61;59.85;100978.09;5031238;28;45512;-73
2022/07/19 04:26:46;;;;;;;;;8.00;8.00;;;;;25.64;59.43;100980.28;5031188;28;46359;-75
2022/07/19 04:29:12;;;;;;;;;8.00;7.00;;;;;25.68;59.04;100972.91;5026474;28;45479;-76
2022/07/19 04:31:37;;;;;;;;;9.00;9.00;;;;;25.78;58.89;100986.81;5024682;28;45764;-74
2022/07/19 04:34:03;;;;;;;;;10.67;6.33;;;;;25.87;58.19;100976.53;5023345;28;45438;-75
2022/07/19 04:36:28;;;;;;;;;9.00;7.67;;;;;26.00;57.65;100982.53;5031843;28;46107;-75
2022/07/19 04:38:53;;;;;;;;;10.00;8.67;;;;;26.11;56.98;100974.75;5031408;28;45842;-79
2022/07/19 04:41:19;;;;;;;;;12.00;7.33;;;;;26.31;56.39;100973.53;5026350;28;45529;-82
2022/07/19 04:43:44;;;;;;;;;8.33;6.67;;;;;26.48;55.10;100973.75;5017080;28;45835;-75
2022/07/19 04:46:10;;;;;;;;;10.67;7.33;;;;;26.61;54.00;100970.13;5017920;28;45479;-75
2022/07/19 04:48:36;;;;;;;;;7.00;5.67;;;;;26.83;52.99;100960.16;5019029;28;45941;-78
2022/07/19 04:51:01;;;;;;;;;8.67;8.00;;;;;27.14;52.08;100973.53;5014207;28;45530;-74
2022/07/19 04:53:27;;;;;;;;;8.67;8.67;;;;;27.38;50.88;100967.69;5008123;28;46315;-74
2022/07/19 04:55:53;;;;;;;;;8.67;7.00;;;;;27.62;49.85;100972.19;5022093;28;45804;-74
2022/07/19 04:58:18;;;;;;;;;10.33;8.33;;;;;27.88;48.61;100968.75;5015793;28;45855;-74
2022/07/19 05:00:44;;;;;;;;;8.33;6.33;;;;;28.13;47.79;100968.13;5019533;28;45517;-73
2022/07/19 05:03:10;;;;;;;;;8.00;8.00;;;;;28.44;46.84;100960.78;5015470;28;45937;-80
2022/07/19 05:05:35;;;;;;;;;9.33;8.67;;;;;28.78;45.04;100937.53;5011895;28;47082;-81
2022/07/19 05:08:01;;;;;;;;;11.33;9.33;;;;;29.45;43.77;100962.91;5026762;28;46171;-82
2022/07/19 05:10:27;;;;;;;;;9.33;8.00;;;;;29.92;42.13;100963.88;5018057;28;45458;-81
2022/07/19 05:13:02;;;;;;;;;9.33;9.00;;;;;30.51;40.67;100970.06;5012071;28;45541;-82
2022/07/19 05:15:36;;;;;;;;;7.00;5.33;;;;;30.90;39.61;100957.56;5023925;28;46459;-83
2022/07/19 05:18:02;;;;;;;;;9.67;7.67;;;;;31.47;38.44;100966.69;5007703;28;46086;-81
2022/07/19 05:20:28;;;;;;;;;9.33;8.67;;;;;31.97;37.12;100965.75;5017092;28;46319;-86
2022/07/19 05:23:00;;;;;;;;;11.00;7.67;;;;;32.25;36.45;100933.06;5019832;28;45453;-86
2022/07/19 05:25:26;;;;;;;;;10.33;8.00;;;;;32.73;35.07;100920.13;5013880;28;47164;-82
2022/07/19 05:27:55;;;;;;;;;7.67;7.33;;;;;33.36;33.48;100918.84;5028865;28;45466;-83
2022/07/19 05:30:24;;;;;;;;;10.00;7.67;;;;;33.96;32.69;100921.78;5021133;28;45649;-81
2022/07/19 05:32:49;;;;;;;;;8.67;6.33;;;;;34.71;31.95;100959.13;5021783;28;45299;-78
2022/07/19 05:35:18;;;;;;;;;7.00;5.33;;;;;34.94;31.15;100905.97;5026843;28;46053;-82
2022/07/19 05:37:44;;;;;;;;;8.67;8.67;;;;;35.66;30.25;100958.88;5018483;28;45580;-80
2022/07/19 05:40:35;;;;;;;;;9.33;7.33;;;;;36.08;29.56;100923.03;5026153;28;45645;-82
2022/07/19 05:43:21;;;;;;;;;8.00;8.00;;;;;36.75;28.28;100918.84;5025134;28;45523;-81
2022/07/19 05:45:51;;;;;;;;;7.33;6.00;;;;;37.34;27.58;100945.06;5028765;28;45391;-80
2022/07/19 05:48:46;;;;;;;;;10.67;8.33;;;;;37.76;26.97;100941.13;5023603;28;46022;-83
2022/07/19 06:13:38;;;;;;;;;;;;;;;;;;;;;
2022/07/19 06:19:59;;;;;;;;;9.00;8.33;;;;;41.62;21.91;100931.00;4776922;29;45707;-83
2022/07/19 06:25:54;;;;;;;;;9.00;8.00;;;;;42.27;20.89;100911.28;4864551;29;45721;-80
2022/07/19 06:28:20;;;;;;;;;10.00;8.00;;;;;42.29;21.34;100867.59;4862123;29;45424;-80
2022/07/19 06:30:45;;;;;;;;;7.33;5.33;;;;;42.75;20.29;100889.41;4867336;28;45500;-77
2022/07/19 06:33:11;;;;;;;;;8.67;8.67;;;;;43.00;20.49;100899.91;4913172;28;45415;-79
2022/07/19 06:35:36;;;;;;;;;9.67;8.33;;;;;43.14;20.23;100891.06;4904412;28;45986;-79
2022/07/19 06:38:06;;;;;;;;;8.00;7.67;;;;;43.47;19.79;100890.66;4978909;28;45831;-79
2022/07/19 06:40:33;;;;;;;;;13.00;10.00;;;;;43.88;19.63;100910.72;5012141;28;45439;-81
2022/07/19 06:42:59;;;;;;;;;7.67;7.67;;;;;44.18;19.75;100876.38;4993040;28;45641;-80
2022/07/19 06:45:25;;;;;;;;;10.00;9.00;;;;;44.59;18.65;100866.56;4994822;28;48063;-81
2022/07/19 06:47:51;;;;;;;;;7.67;6.33;;;;;45.18;18.86;100901.81;5014880;28;45751;-80
2022/07/19 06:50:19;;;;;;;;;9.67;8.00;;;;;45.77;18.39;100900.09;5017828;28;45676;-81
2022/07/19 06:52:47;;;;;;;;;11.67;10.00;;;;;46.01;17.76;100866.03;5021292;28;45792;-78
2022/07/19 06:58:55;;;;;;;;;10.33;7.33;;;;;46.79;17.45;100841.19;4960676;28;45322;-81
2022/07/19 07:01:21;;;;;;;;;9.33;8.00;;;;;47.28;16.82;100872.09;5000008;28;45848;-79
2022/07/19 07:03:46;;;;;;;;;10.33;8.33;;;;;47.86;16.89;100898.09;5016364;28;46316;-80
2022/07/19 07:06:15;;;;;;;;;8.00;7.00;;;;;48.24;16.48;100871.09;5016998;28;46838;-80
2022/07/19 07:12:15;;;;;;;;;7.33;7.33;;;;;49.58;14.58;100886.56;5016929;28;45852;-82
2022/07/19 07:14:58;;;;;;;;;8.00;8.00;;;;;50.07;14.80;100870.38;5019160;28;45884;-82
2022/07/19 07:17:26;;;;;;;;;12.67;9.00;;;;;50.43;14.63;100887.16;4999510;28;47236;-79
2022/07/19 07:19:52;;;;;;;;;13.00;9.00;;;;;50.80;14.24;100884.25;5005464;28;45802;-81
2022/07/19 07:22:18;;;;;;;;;7.33;7.00;;;;;51.29;13.74;100844.38;5009785;28;45483;-81
2022/07/19 07:24:44;;;;;;;;;10.00;7.00;;;;;52.19;13.04;100854.53;4998928;28;46577;-77
2022/07/19 07:27:09;;;;;;;;;9.00;8.00;;;;;52.90;12.90;100881.31;5012743;28;46844;-79
2022/07/19 07:29:35;;;;;;;;;11.33;9.00;;;;;53.26;12.52;100872.66;5022292;28;45862;-78
2022/07/19 07:32:17;;;;;;;;;13.67;9.67;;;;;53.10;12.94;100868.91;5024309;28;45972;-78
2022/07/19 07:34:43;;;;;;;;;8.33;7.00;;;;;53.31;12.47;100848.47;5016826;28;45857;-75
2022/07/19 07:37:26;;;;;;;;;7.67;7.67;;;;;53.30;12.66;100829.25;5022444;28;45533;-78
2022/07/19 07:39:51;;;;;;;;;8.33;7.00;;;;;54.07;11.85;100830.22;5020498;28;45466;-77
2022/07/19 07:42:25;;;;;;;;;8.00;7.67;;;;;54.37;11.34;100841.81;5018275;28;46054;-78
2022/07/19 07:44:51;;;;;;;;;7.67;7.67;;;;;55.01;11.13;100856.72;5020881;28;45426;-79
2022/07/19 07:47:23;;;;;;;;;8.33;8.33;;;;;55.44;10.60;100844.25;5026710;28;45914;-80
2022/07/19 07:49:52;;;;;;;;;11.00;9.67;;;;;55.48;10.87;100844.81;5008608;28;45522;-78
2022/07/19 07:52:19;;;;;;;;;9.00;8.00;;;;;55.79;10.17;100852.78;5020394;28;45758;-77
2022/07/19 07:54:48;;;;;;;;;10.33;9.33;;;;;56.06;10.34;100838.78;5030435;28;45787;-78
2022/07/19 07:57:16;;;;;;;;;7.67;7.33;;;;;55.93;10.31;100818.59;5022114;28;46862;-80
2022/07/19 07:59:42;;;;;;;;;8.00;8.00;;;;;55.87;9.93;100821.53;4996886;28;45510;-79
2022/07/19 08:02:08;;;;;;;;;8.00;8.00;;;;;56.01;10.07;100825.66;5001205;28;45878;-79
2022/07/19 08:04:33;;;;;;;;;6.33;6.33;;;;;55.79;9.86;100819.59;5001082;28;45765;-79
2022/07/19 08:06:59;;;;;;;;;13.33;10.00;;;;;55.99;10.43;100824.56;5002884;28;46252;-77
2022/07/19 08:09:25;;;;;;;;;7.67;7.00;;;;;55.75;10.11;100822.81;5011030;28;45365;-78
2022/07/19 08:11:56;;;;;;;;;7.67;7.67;;;;;55.92;10.14;100822.09;5004424;28;45526;-76
2022/07/19 08:14:23;;;;;;;;;9.00;8.00;;;;;56.11;9.98;100796.75;5008572;28;47111;-79
2022/07/19 08:16:52;;;;;;;;;8.33;7.00;;;;;56.12;9.72;100827.81;5016878;28;47734;-78
2022/07/19 08:19:49;;;;;;;;;;;;;;;;;;;;;
2022/07/19 08:22:39;;;;;;;;;7.00;7.00;;;;;56.14;9.79;100803.75;5016803;28;69069;-79
2022/07/19 08:25:45;;;;;;;;;7.00;7.00;;;;;56.29;10.11;100789.63;5023712;28;45540;-79
2022/07/19 08:28:50;;;;;;;;;9.00;8.00;;;;;56.78;9.88;100801.25;4949693;28;45847;-80
2022/07/19 08:31:12;;;;;;;;;7.00;6.67;;;;;56.31;9.75;100757.50;5012441;28;45450;-77
2022/07/19 08:33:42;;;;;;;;;7.00;7.00;;;;;56.47;9.90;100800.09;5032520;28;45678;-78
2022/07/19 08:36:09;;;;;;;;;8.33;7.33;;;;;56.38;9.28;100785.63;5025870;28;45319;-77
2022/07/19 08:38:36;;;;;;;;;10.33;8.00;;;;;56.71;9.09;100784.09;5026041;28;46101;-78
2022/07/19 08:41:04;;;;;;;;;7.33;7.33;;;;;56.90;9.47;100799.94;5018418;28;45475;-76
2022/07/19 08:43:30;;;;;;;;;9.00;8.00;;;;;56.92;9.25;100803.13;5005919;28;45406;-78
2022/07/19 08:46:01;;;;;;;;;6.67;6.33;;;;;57.25;9.13;100788.94;5019645;28;45752;-78
2022/07/19 08:48:34;;;;;;;;;5.67;5.67;;;;;58.10;9.02;100776.91;5011620;28;47081;-79
2022/07/19 08:51:00;;;;;;;;;8.00;7.00;;;;;58.58;8.24;100790.31;5016591;28;45737;-78
2022/07/19 08:53:30;;;;;;;;;10.33;9.33;;;;;57.92;8.88;100755.50;5027590;28;45665;-79
2022/07/19 08:55:57;;;;;;;;;6.00;6.00;;;;;57.82;8.89;100786.69;5007037;28;45810;-78
2022/07/19 08:58:23;;;;;;;;;6.33;4.67;;;;;58.13;9.16;100775.84;5010092;28;45490;-77
2022/07/19 09:00:49;;;;;;;;;9.00;9.00;;;;;58.99;8.22;100792.44;5002134;28;45688;-78
2022/07/19 09:03:15;;;;;;;;;7.67;7.67;;;;;58.95;8.02;100767.47;5026402;28;45366;-78
2022/07/19 09:05:41;;;;;;;;;8.67;7.67;;;;;59.42;7.75;100784.25;5020659;28;46270;-79
2022/07/19 09:08:09;;;;;;;;;7.00;6.00;;;;;59.57;8.13;100778.69;5026364;28;46244;-77
2022/07/19 09:10:41;;;;;;;;;6.00;6.00;;;;;59.50;7.45;100764.53;5032997;28;45648;-77
2022/07/19 09:13:10;;;;;;;;;7.33;6.00;;;;;59.76;7.27;100781.72;5025194;28;45442;-77
2022/07/19 09:15:42;;;;;;;;;6.67;6.33;;;;;59.71;8.30;100744.09;5020668;28;45841;-78
2022/07/19 09:18:18;;;;;;;;;9.67;7.33;;;;;60.17;7.96;100756.16;5004566;28;45854;-79
2022/07/19 09:20:45;;;;;;;;;6.00;6.00;;;;;60.42;7.12;100771.69;5019223;28;45551;-77
2022/07/19 09:23:15;;;;;;;;;9.00;7.67;;;;;60.08;7.57;100745.50;5019646;28;45462;-78
2022/07/19 09:25:52;;;;;;;;;8.67;7.33;;;;;59.72;7.33;100740.59;5014741;28;45548;-76
2022/07/19 09:28:19;;;;;;;;;7.00;7.00;;;;;59.89;8.26;100746.28;5001513;28;46554;-79
2022/07/19 09:30:51;;;;;;;;;8.33;8.33;;;;;60.06;6.86;100757.91;5001525;28;45586;-78
2022/07/19 09:33:19;;;;;;;;;6.00;6.00;;;;;59.82;7.06;100722.44;5021518;28;45631;-78
2022/07/19 09:35:52;;;;;;;;;5.00;5.00;;;;;59.64;6.91;100721.09;5005920;28;45827;-77
2022/07/19 09:38:32;;;;;;;;;6.00;6.00;;;;;60.06;7.27;100740.16;5006572;28;45563;-78
2022/07/19 09:41:06;;;;;;;;;7.67;6.00;;;;;59.76;7.72;100724.66;5024276;28;45378;-79
2022/07/19 09:43:49;;;;;;;;;7.00;7.00;;;;;60.12;6.93;100730.41;5012060;28;45654;-77
2022/07/19 09:46:30;;;;;;;;;7.00;7.00;;;;;59.93;7.09;100718.53;5023525;28;45752;-79
2022/07/19 09:49:14;;;;;;;;;7.67;7.67;;;;;59.59;7.62;100719.75;5020627;28;46046;-79
2022/07/19 09:51:45;;;;;;;;;6.00;5.33;;;;;59.48;7.53;100726.63;5015840;28;45487;-82
2022/07/19 09:54:15;;;;;;;;;6.33;6.33;;;;;59.50;6.59;100717.19;5014405;28;45832;-77
2022/07/19 09:56:43;;;;;;;;;8.67;8.00;;;;;59.43;6.83;100705.97;5029392;28;45750;-78
2022/07/19 09:59:15;;;;;;;;;6.67;5.33;;;;;59.58;7.13;100700.41;5018241;28;45510;-79
2022/07/19 10:01:48;;;;;;;;;6.67;6.33;;;;;59.74;7.11;100707.47;5002939;28;45545;-77
2022/07/19 10:04:16;;;;;;;;;7.00;6.00;;;;;59.63;7.40;100705.47;5035216;28;45450;-78
2022/07/19 10:06:43;;;;;;;;;6.33;6.33;;;;;59.09;7.00;100700.44;5020706;28;47590;-77
2022/07/19 10:09:15;;;;;;;;;6.67;5.33;;;;;59.09;7.22;100706.34;5034857;28;45371;-78
2022/07/19 10:11:44;;;;;;;;;6.33;6.33;;;;;59.13;6.28;100674.31;5032870;28;45871;-79
2022/07/19 10:14:11;;;;;;;;;8.00;8.00;;;;;59.00;6.98;100689.75;5019879;28;45490;-81
2022/07/19 10:16:51;;;;;;;;;7.00;7.00;;;;;59.07;6.77;100689.16;5012874;28;45544;-74
2022/07/19 10:19:34;;;;;;;;;8.67;8.67;;;;;58.60;6.97;100678.28;5018873;28;45512;-77
2022/07/19 10:22:00;;;;;;;;;6.00;6.00;;;;;58.84;7.10;100679.69;5015234;28;45436;-77
2022/07/19 10:24:52;;;;;;;;;8.00;7.00;;;;;58.89;7.93;100669.16;5004857;28;45789;-78
2022/07/19 10:27:35;;;;;;;;;7.00;6.33;;;;;58.89;7.43;100667.03;5021415;28;45849;-78
2022/07/19 10:30:09;;;;;;;;;7.33;7.33;;;;;58.92;6.98;100665.09;5017118;28;46081;-78
2022/07/19 10:32:35;;;;;;;;;6.00;6.00;;;;;59.45;7.32;100668.56;5027064;28;45683;-79
2022/07/19 10:35:17;;;;;;;;;8.00;8.00;;;;;59.67;6.45;100667.47;5027158;28;45457;-78
2022/07/19 10:37:48;;;;;;;;;6.00;6.00;;;;;59.04;6.33;100648.06;5006803;28;46127;-78
2022/07/19 10:40:14;;;;;;;;;6.00;6.00;;;;;58.45;7.50;100630.63;5020800;28;45441;-79
2022/07/19 10:43:07;;;;;;;;;13.33;13.33;;;;;58.73;6.44;100651.06;5014950;28;45458;-78
2022/07/19 10:45:41;;;;;;;;;8.67;7.67;;;;;58.80;6.94;100634.88;5006901;28;45857;-81
2022/07/19 10:48:12;;;;;;;;;8.33;8.33;;;;;58.56;6.82;100624.63;5026556;28;46748;-77
2022/07/19 10:50:49;;;;;;;;;5.33;5.33;;;;;58.12;6.89;100632.50;5003166;28;46329;-80
2022/07/19 10:53:39;;;;;;;;;8.67;6.00;;;;;57.66;6.51;100631.13;5003001;28;45844;-81
2022/07/19 10:56:15;;;;;;;;;4.33;4.33;;;;;57.94;7.12;100628.03;5021500;28;45553;-81
2022/07/19 10:59:08;;;;;;;;;5.33;5.00;;;;;58.15;6.64;100628.44;5010991;28;45580;-79
2022/07/19 11:01:36;;;;;;;;;8.67;7.33;;;;;57.80;6.65;100629.97;5023802;28;46169;-81
2022/07/19 11:04:28;;;;;;;;;7.67;5.67;;;;;57.26;7.17;100617.38;5013359;28;45867;-89
2022/07/19 11:07:35;;;;;;;;;5.00;5.00;;;;;56.51;7.64;100558.31;5023829;28;45375;-87
2022/07/19 11:10:04;;;;;;;;;8.00;7.33;;;;;56.64;7.29;100590.16;4964289;28;45665;-85
2022/07/19 11:12:36;;;;;;;;;7.00;6.50;;;;;56.30;7.69;100579.22;4974720;28;45927;-85
2022/07/19 11:15:11;;;;;;;;;9.00;9.00;;;;;55.80;8.01;100560.13;4991310;28;45980;-88
2022/07/19 11:17:39;;;;;;;;;10.00;5.33;;;;;55.80;8.02;100580.72;5043189;28;45600;-88
2022/07/19 11:20:17;;;;;;;;;6.67;6.67;;;;;55.05;6.83;100601.53;5031539;28;45501;-86
2022/07/19 11:22:49;;;;;;;;;6.33;6.33;;;;;54.16;7.66;100556.28;5034268;28;45582;-88
2022/07/19 11:25:29;;;;;;;;;6.67;6.67;;;;;53.40;8.49;100539.75;5027720;28;45431;-89
2022/07/19 11:27:56;;;;;;;;;8.33;7.67;;;;;52.61;8.15;100571.63;5034692;28;45560;-86
2022/07/19 11:30:25;;;;;;;;;7.67;6.00;;;;;51.66;8.34;100575.28;5029842;28;46291;-84
2022/07/19 11:32:55;;;;;;;;;7.00;7.00;;;;;50.82;8.95;100580.84;5026665;28;48480;-85
2022/07/19 11:35:21;;;;;;;;;7.00;7.00;;;;;49.80;9.62;100557.78;5032451;28;46495;-79
2022/07/19 11:37:56;;;;;;;;;6.00;6.00;;;;;48.83;9.99;100532.94;5022827;28;45624;-80
2022/07/19 11:40:23;;;;;;;;;9.00;7.00;;;;;48.14;10.24;100551.53;5013901;28;45408;-77
2022/07/19 11:42:50;;;;;;;;;9.00;9.00;;;;;47.47;10.05;100566.00;5019011;28;45573;-76
2022/07/19 11:45:39;;;;;;;;;11.33;8.33;;;;;46.48;10.77;100566.00;5022425;28;45629;-81
2022/07/19 11:48:25;;;;;;;;;9.00;9.00;;;;;45.63;11.55;100550.69;5040980;28;45708;-80
2022/07/19 11:51:10;;;;;;;;;7.00;7.00;;;;;45.19;11.22;100545.25;5030387;28;45369;-80
2022/07/19 11:54:09;;;;;;;;;8.67;8.00;;;;;44.79;11.55;100559.88;5033513;28;45312;-83
2022/07/19 11:56:35;;;;;;;;;9.00;6.33;;;;;44.21;11.77;100551.69;5024451;28;45606;-75
2022/07/19 11:59:04;;;;;;;;;8.00;7.00;;;;;43.63;11.83;100538.44;5026235;28;45541;-76
2022/07/19 12:01:30;;;;;;;;;7.00;5.00;;;;;43.23;12.19;100551.97;5030839;28;46249;-78
2022/07/19 12:04:07;;;;;;;;;11.33;8.67;;;;;42.78;12.31;100527.97;5036075;28;45991;-77
2022/07/19 12:06:37;;;;;;;;;8.67;8.67;;;;;42.37;13.11;100539.72;5002069;28;45479;-77
2022/07/19 12:09:11;;;;;;;;;8.00;7.00;;;;;41.90;13.13;100535.38;5021685;28;45416;-77
2022/07/19 12:11:38;;;;;;;;;9.00;8.00;;;;;41.42;13.72;100530.56;5015680;28;46146;-78
2022/07/19 12:14:17;;;;;;;;;9.33;8.67;;;;;41.05;13.69;100540.75;5013677;28;46277;-77